sensor_id;sensor_type;location;lat;lon;timestamp;P1;durP1;ratioP1;P2;durP2;ratioP2
16600;SDS011;34891;48.164;11.572;2023-02-15T00:01:43;13.98;;;5.43;;
16600;SDS011;34891;48.164;11.572;2023-02-15T00:06:46;12.03;;;5.20;;
16600;SDS011;34891;48.164;11.572;2023-02-15T00:11:50;14.00;;;5.23;;
16600;SDS011;34891;48.164;11.572;2023-02-15T00:16:53;15.00;;;5.25;;
16600;SDS011;34891;48.164;11.572;2023-02-15T00:21:56;12.77;;;5.07;;
16600;SDS011;34891;48.164;11.572;2023-02-15T00:26:59;10.73;;;3.90;;
16600;SDS011;34891;48.164;11.572;2023-02-15T00:32:02;11.52;;;4.78;;
16600;SDS011;34891;48.164;11.572;2023-02-15T00:37:05;11.70;;;4.70;;
16600;SDS011;34891;48.164;11.572;2023-02-15T00:42:10;12.50;;;5.10;;
16600;SDS011;34891;48.164;11.572;2023-02-15T00:47:12;13.70;;;5.70;;
16600;SDS011;34891;48.164;11.572;2023-02-15T00:52:15;10.63;;;4.50;;
16600;SDS011;34891;48.164;11.572;2023-02-15T00:57:19;4.33;;;2.70;;
16600;SDS011;34891;48.164;11.572;2023-02-15T01:02:21;5.38;;;2.65;;
16600;SDS011;34891;48.164;11.572;2023-02-15T01:07:24;7.43;;;3.43;;
16600;SDS011;34891;48.164;11.572;2023-02-15T01:12:28;12.73;;;5.30;;
16600;SDS011;34891;48.164;11.572;2023-02-15T01:17:30;10.15;;;4.13;;
16600;SDS011;34891;48.164;11.572;2023-02-15T01:22:33;5.77;;;2.43;;
16600;SDS011;34891;48.164;11.572;2023-02-15T01:27:37;12.93;;;4.47;;
16600;SDS011;34891;48.164;11.572;2023-02-15T01:32:40;10.02;;;3.85;;
16600;SDS011;34891;48.164;11.572;2023-02-15T01:37:43;5.53;;;2.70;;
16600;SDS011;34891;48.164;11.572;2023-02-15T01:42:49;8.90;;;3.63;;
16600;SDS011;34891;48.164;11.572;2023-02-15T01:47:54;7.37;;;3.20;;
16600;SDS011;34891;48.164;11.572;2023-02-15T01:52:58;8.77;;;3.17;;
16600;SDS011;34891;48.164;11.572;2023-02-15T01:58:05;6.03;;;2.30;;
16600;SDS011;34891;48.164;11.572;2023-02-15T02:03:08;9.03;;;4.03;;
16600;SDS011;34891;48.164;11.572;2023-02-15T02:08:12;14.30;;;6.03;;
16600;SDS011;34891;48.164;11.572;2023-02-15T02:13:16;9.90;;;3.97;;
16600;SDS011;34891;48.164;11.572;2023-02-15T02:18:21;13.00;;;4.80;;
16600;SDS011;34891;48.164;11.572;2023-02-15T02:23:27;6.00;;;3.07;;
16600;SDS011;34891;48.164;11.572;2023-02-15T02:28:38;15.13;;;5.30;;
16600;SDS011;34891;48.164;11.572;2023-02-15T02:33:50;11.48;;;4.28;;
16600;SDS011;34891;48.164;11.572;2023-02-15T02:39:07;9.23;;;3.63;;
16600;SDS011;34891;48.164;11.572;2023-02-15T02:44:13;6.00;;;2.60;;
16600;SDS011;34891;48.164;11.572;2023-02-15T02:49:29;15.70;;;5.47;;
16600;SDS011;34891;48.164;11.572;2023-02-15T02:54:32;3.17;;;1.90;;
16600;SDS011;34891;48.164;11.572;2023-02-15T02:59:36;5.07;;;2.92;;
16600;SDS011;34891;48.164;11.572;2023-02-15T03:04:42;6.27;;;3.37;;
16600;SDS011;34891;48.164;11.572;2023-02-15T03:09:48;1.73;;;1.07;;
16600;SDS011;34891;48.164;11.572;2023-02-15T03:19:56;20.17;;;5.27;;
16600;SDS011;34891;48.164;11.572;2023-02-15T03:25:02;16.10;;;7.00;;
16600;SDS011;34891;48.164;11.572;2023-02-15T03:30:09;6.37;;;3.33;;
16600;SDS011;34891;48.164;11.572;2023-02-15T03:35:14;18.53;;;6.17;;
16600;SDS011;34891;48.164;11.572;2023-02-15T03:40:18;18.52;;;6.80;;
16600;SDS011;34891;48.164;11.572;2023-02-15T03:45:39;23.27;;;6.47;;
16600;SDS011;34891;48.164;11.572;2023-02-15T03:50:58;22.97;;;7.70;;
16600;SDS011;34891;48.164;11.572;2023-02-15T03:56:20;15.35;;;5.57;;
16600;SDS011;34891;48.164;11.572;2023-02-15T04:01:25;14.87;;;5.17;;
16600;SDS011;34891;48.164;11.572;2023-02-15T04:07:01;13.47;;;5.63;;
16600;SDS011;34891;48.164;11.572;2023-02-15T04:12:04;16.30;;;5.67;;
16600;SDS011;34891;48.164;11.572;2023-02-15T04:17:06;15.83;;;6.03;;
16600;SDS011;34891;48.164;11.572;2023-02-15T04:22:10;15.93;;;5.83;;
16600;SDS011;34891;48.164;11.572;2023-02-15T04:27:31;4.70;;;2.20;;
16600;SDS011;34891;48.164;11.572;2023-02-15T04:32:33;18.73;;;6.07;;
16600;SDS011;34891;48.164;11.572;2023-02-15T04:37:37;12.47;;;4.67;;
16600;SDS011;34891;48.164;11.572;2023-02-15T04:42:40;23.17;;;7.40;;
16600;SDS011;34891;48.164;11.572;2023-02-15T04:47:43;25.37;;;7.20;;
16600;SDS011;34891;48.164;11.572;2023-02-15T04:52:47;19.70;;;6.90;;
16600;SDS011;34891;48.164;11.572;2023-02-15T04:57:49;18.67;;;5.93;;
16600;SDS011;34891;48.164;11.572;2023-02-15T05:02:52;14.20;;;5.40;;
16600;SDS011;34891;48.164;11.572;2023-02-15T05:07:56;10.67;;;4.97;;
16600;SDS011;34891;48.164;11.572;2023-02-15T05:12:59;25.17;;;9.25;;
16600;SDS011;34891;48.164;11.572;2023-02-15T05:18:02;15.90;;;5.20;;
16600;SDS011;34891;48.164;11.572;2023-02-15T05:23:06;13.20;;;5.43;;
16600;SDS011;34891;48.164;11.572;2023-02-15T05:28:08;17.55;;;6.55;;
16600;SDS011;34891;48.164;11.572;2023-02-15T05:33:24;17.13;;;6.63;;
16600;SDS011;34891;48.164;11.572;2023-02-15T05:38:28;14.77;;;6.83;;
16600;SDS011;34891;48.164;11.572;2023-02-15T05:43:31;18.07;;;7.13;;
16600;SDS011;34891;48.164;11.572;2023-02-15T05:48:33;17.27;;;6.77;;
16600;SDS011;34891;48.164;11.572;2023-02-15T05:53:38;18.20;;;6.83;;
16600;SDS011;34891;48.164;11.572;2023-02-15T06:03:43;21.00;;;7.33;;
16600;SDS011;34891;48.164;11.572;2023-02-15T06:08:47;18.43;;;7.27;;
16600;SDS011;34891;48.164;11.572;2023-02-15T06:13:50;21.17;;;7.32;;
16600;SDS011;34891;48.164;11.572;2023-02-15T06:18:53;19.63;;;7.87;;
16600;SDS011;34891;48.164;11.572;2023-02-15T06:23:57;21.43;;;8.60;;
16600;SDS011;34891;48.164;11.572;2023-02-15T06:28:59;22.60;;;7.55;;
16600;SDS011;34891;48.164;11.572;2023-02-15T06:34:02;20.20;;;8.20;;
16600;SDS011;34891;48.164;11.572;2023-02-15T06:39:06;21.63;;;8.30;;
16600;SDS011;34891;48.164;11.572;2023-02-15T06:44:09;29.73;;;9.32;;
16600;SDS011;34891;48.164;11.572;2023-02-15T06:49:12;21.63;;;8.77;;
16600;SDS011;34891;48.164;11.572;2023-02-15T06:54:16;22.40;;;8.17;;
16600;SDS011;34891;48.164;11.572;2023-02-15T06:59:18;24.35;;;8.55;;
16600;SDS011;34891;48.164;11.572;2023-02-15T07:04:22;17.90;;;6.57;;
16600;SDS011;34891;48.164;11.572;2023-02-15T07:09:26;16.83;;;5.80;;
16600;SDS011;34891;48.164;11.572;2023-02-15T07:19:31;21.90;;;8.33;;
16600;SDS011;34891;48.164;11.572;2023-02-15T07:24:35;15.97;;;6.67;;
16600;SDS011;34891;48.164;11.572;2023-02-15T07:29:38;13.98;;;6.30;;
16600;SDS011;34891;48.164;11.572;2023-02-15T07:34:41;18.83;;;6.50;;
16600;SDS011;34891;48.164;11.572;2023-02-15T07:39:45;10.33;;;4.37;;
16600;SDS011;34891;48.164;11.572;2023-02-15T07:44:47;16.75;;;6.70;;
16600;SDS011;34891;48.164;11.572;2023-02-15T07:49:50;13.43;;;5.83;;
16600;SDS011;34891;48.164;11.572;2023-02-15T07:54:54;20.37;;;7.70;;
16600;SDS011;34891;48.164;11.572;2023-02-15T07:59:56;21.35;;;7.30;;
16600;SDS011;34891;48.164;11.572;2023-02-15T08:04:59;15.03;;;6.27;;
16600;SDS011;34891;48.164;11.572;2023-02-15T08:10:03;13.93;;;5.90;;
16600;SDS011;34891;48.164;11.572;2023-02-15T08:15:06;12.10;;;5.43;;
16600;SDS011;34891;48.164;11.572;2023-02-15T08:20:09;12.20;;;4.70;;
16600;SDS011;34891;48.164;11.572;2023-02-15T08:25:14;22.87;;;8.50;;
16600;SDS011;34891;48.164;11.572;2023-02-15T08:30:16;23.23;;;7.18;;
16600;SDS011;34891;48.164;11.572;2023-02-15T08:35:19;19.30;;;8.15;;
16600;SDS011;34891;48.164;11.572;2023-02-15T08:40:23;26.00;;;8.37;;
16600;SDS011;34891;48.164;11.572;2023-02-15T08:45:26;20.70;;;8.00;;
16600;SDS011;34891;48.164;11.572;2023-02-15T08:50:28;13.50;;;5.03;;
16600;SDS011;34891;48.164;11.572;2023-02-15T08:55:33;23.17;;;9.45;;
16600;SDS011;34891;48.164;11.572;2023-02-15T09:00:35;23.50;;;8.73;;
16600;SDS011;34891;48.164;11.572;2023-02-15T09:05:38;18.92;;;8.95;;
16600;SDS011;34891;48.164;11.572;2023-02-15T09:10:42;17.65;;;9.05;;
16600;SDS011;34891;48.164;11.572;2023-02-15T09:15:44;18.05;;;9.73;;
16600;SDS011;34891;48.164;11.572;2023-02-15T09:20:47;21.17;;;11.50;;
16600;SDS011;34891;48.164;11.572;2023-02-15T09:25:51;19.35;;;10.68;;
16600;SDS011;34891;48.164;11.572;2023-02-15T09:30:54;15.88;;;10.98;;
16600;SDS011;34891;48.164;11.572;2023-02-15T09:35:57;19.17;;;11.75;;
16600;SDS011;34891;48.164;11.572;2023-02-15T09:46:08;19.98;;;11.07;;
16600;SDS011;34891;48.164;11.572;2023-02-15T09:51:29;19.23;;;12.27;;
16600;SDS011;34891;48.164;11.572;2023-02-15T09:56:36;19.77;;;11.73;;
16600;SDS011;34891;48.164;11.572;2023-02-15T10:01:42;17.33;;;12.07;;
16600;SDS011;34891;48.164;11.572;2023-02-15T10:06:51;16.38;;;12.48;;
16600;SDS011;34891;48.164;11.572;2023-02-15T10:12:02;19.08;;;12.98;;
16600;SDS011;34891;48.164;11.572;2023-02-15T10:17:14;22.00;;;12.65;;
16600;SDS011;34891;48.164;11.572;2023-02-15T10:22:21;18.15;;;11.85;;
16600;SDS011;34891;48.164;11.572;2023-02-15T10:27:27;15.50;;;11.82;;
16600;SDS011;34891;48.164;11.572;2023-02-15T10:32:35;16.02;;;12.07;;
16600;SDS011;34891;48.164;11.572;2023-02-15T10:37:45;16.10;;;12.05;;
16600;SDS011;34891;48.164;11.572;2023-02-15T10:42:54;17.17;;;12.18;;
16600;SDS011;34891;48.164;11.572;2023-02-15T10:48:06;18.52;;;13.10;;
16600;SDS011;34891;48.164;11.572;2023-02-15T10:53:17;15.85;;;12.48;;
16600;SDS011;34891;48.164;11.572;2023-02-15T10:58:24;20.80;;;12.52;;
16600;SDS011;34891;48.164;11.572;2023-02-15T11:03:43;18.92;;;13.30;;
16600;SDS011;34891;48.164;11.572;2023-02-15T11:08:48;18.77;;;13.07;;
16600;SDS011;34891;48.164;11.572;2023-02-15T11:13:53;21.40;;;13.93;;
16600;SDS011;34891;48.164;11.572;2023-02-15T11:18:58;22.20;;;13.88;;
16600;SDS011;34891;48.164;11.572;2023-02-15T11:24:07;18.77;;;13.73;;
16600;SDS011;34891;48.164;11.572;2023-02-15T11:29:13;23.08;;;13.73;;
16600;SDS011;34891;48.164;11.572;2023-02-15T11:34:23;21.23;;;14.32;;
16600;SDS011;34891;48.164;11.572;2023-02-15T11:39:29;20.95;;;14.07;;
16600;SDS011;34891;48.164;11.572;2023-02-15T11:44:34;21.60;;;14.50;;
16600;SDS011;34891;48.164;11.572;2023-02-15T11:49:38;23.50;;;14.80;;
16600;SDS011;34891;48.164;11.572;2023-02-15T11:54:42;20.10;;;14.65;;
16600;SDS011;34891;48.164;11.572;2023-02-15T11:59:46;21.52;;;14.20;;
16600;SDS011;34891;48.164;11.572;2023-02-15T12:04:53;23.63;;;15.52;;
16600;SDS011;34891;48.164;11.572;2023-02-15T12:10:00;21.48;;;14.57;;
16600;SDS011;34891;48.164;11.572;2023-02-15T12:15:09;25.30;;;15.05;;
16600;SDS011;34891;48.164;11.572;2023-02-15T12:20:22;22.42;;;13.13;;
16600;SDS011;34891;48.164;11.572;2023-02-15T12:25:29;27.77;;;15.45;;
16600;SDS011;34891;48.164;11.572;2023-02-15T12:30:34;20.85;;;13.88;;
16600;SDS011;34891;48.164;11.572;2023-02-15T12:35:39;22.73;;;14.80;;
16600;SDS011;34891;48.164;11.572;2023-02-15T12:40:41;25.73;;;14.13;;
16600;SDS011;34891;48.164;11.572;2023-02-15T12:45:52;21.25;;;13.43;;
16600;SDS011;34891;48.164;11.572;2023-02-15T12:50:56;20.73;;;13.40;;
16600;SDS011;34891;48.164;11.572;2023-02-15T12:56:10;18.58;;;12.60;;
16600;SDS011;34891;48.164;11.572;2023-02-15T13:01:14;19.42;;;12.27;;
16600;SDS011;34891;48.164;11.572;2023-02-15T13:06:18;19.63;;;12.55;;
16600;SDS011;34891;48.164;11.572;2023-02-15T13:11:22;17.85;;;11.68;;
16600;SDS011;34891;48.164;11.572;2023-02-15T13:16:28;21.95;;;12.70;;
16600;SDS011;34891;48.164;11.572;2023-02-15T13:21:35;17.15;;;12.20;;
16600;SDS011;34891;48.164;11.572;2023-02-15T13:26:39;17.27;;;12.40;;
16600;SDS011;34891;48.164;11.572;2023-02-15T13:31:45;23.17;;;12.23;;
16600;SDS011;34891;48.164;11.572;2023-02-15T13:36:51;20.02;;;11.95;;
16600;SDS011;34891;48.164;11.572;2023-02-15T13:41:58;19.00;;;12.13;;
16600;SDS011;34891;48.164;11.572;2023-02-15T13:47:06;20.15;;;11.63;;
16600;SDS011;34891;48.164;11.572;2023-02-15T13:52:16;22.35;;;11.48;;
16600;SDS011;34891;48.164;11.572;2023-02-15T13:57:25;16.58;;;10.68;;
16600;SDS011;34891;48.164;11.572;2023-02-15T14:02:37;17.63;;;11.13;;
16600;SDS011;34891;48.164;11.572;2023-02-15T14:07:46;17.95;;;10.57;;
16600;SDS011;34891;48.164;11.572;2023-02-15T14:12:56;18.05;;;10.50;;
16600;SDS011;34891;48.164;11.572;2023-02-15T14:18:04;21.08;;;11.30;;
16600;SDS011;34891;48.164;11.572;2023-02-15T14:23:14;22.40;;;11.27;;
16600;SDS011;34891;48.164;11.572;2023-02-15T14:28:19;17.25;;;10.30;;
16600;SDS011;34891;48.164;11.572;2023-02-15T14:33:28;21.75;;;10.80;;
16600;SDS011;34891;48.164;11.572;2023-02-15T14:38:42;18.50;;;9.57;;
16600;SDS011;34891;48.164;11.572;2023-02-15T14:43:52;23.27;;;10.90;;
16600;SDS011;34891;48.164;11.572;2023-02-15T14:48:55;20.70;;;10.38;;
16600;SDS011;34891;48.164;11.572;2023-02-15T14:54:00;17.35;;;9.85;;
16600;SDS011;34891;48.164;11.572;2023-02-15T14:59:13;21.33;;;10.13;;
16600;SDS011;34891;48.164;11.572;2023-02-15T15:04:21;20.85;;;10.80;;
16600;SDS011;34891;48.164;11.572;2023-02-15T15:09:27;22.75;;;10.38;;
16600;SDS011;34891;48.164;11.572;2023-02-15T15:14:37;22.95;;;11.07;;
16600;SDS011;34891;48.164;11.572;2023-02-15T15:25:12;22.27;;;10.93;;
16600;SDS011;34891;48.164;11.572;2023-02-15T15:35:36;26.33;;;12.10;;
16600;SDS011;34891;48.164;11.572;2023-02-15T15:40:57;26.27;;;11.57;;
16600;SDS011;34891;48.164;11.572;2023-02-15T15:46:07;25.30;;;11.80;;
16600;SDS011;34891;48.164;11.572;2023-02-15T15:51:14;27.40;;;11.23;;
16600;SDS011;34891;48.164;11.572;2023-02-15T15:56:22;25.00;;;11.40;;
16600;SDS011;34891;48.164;11.572;2023-02-15T16:01:27;24.33;;;11.13;;
16600;SDS011;34891;48.164;11.572;2023-02-15T16:06:32;30.75;;;12.57;;
16600;SDS011;34891;48.164;11.572;2023-02-15T16:11:37;34.90;;;13.07;;
16600;SDS011;34891;48.164;11.572;2023-02-15T16:16:41;32.05;;;11.45;;
16600;SDS011;34891;48.164;11.572;2023-02-15T16:21:48;27.55;;;11.45;;
16600;SDS011;34891;48.164;11.572;2023-02-15T16:26:59;31.38;;;13.68;;
16600;SDS011;34891;48.164;11.572;2023-02-15T16:32:15;32.45;;;12.57;;
16600;SDS011;34891;48.164;11.572;2023-02-15T16:37:18;31.70;;;11.27;;
16600;SDS011;34891;48.164;11.572;2023-02-15T16:42:24;30.27;;;11.88;;
16600;SDS011;34891;48.164;11.572;2023-02-15T16:52:29;35.13;;;12.63;;
16600;SDS011;34891;48.164;11.572;2023-02-15T16:57:34;31.77;;;11.27;;
16600;SDS011;34891;48.164;11.572;2023-02-15T17:02:37;38.88;;;14.38;;
16600;SDS011;34891;48.164;11.572;2023-02-15T17:08:05;34.05;;;12.20;;
16600;SDS011;34891;48.164;11.572;2023-02-15T17:13:12;18.10;;;7.38;;
16600;SDS011;34891;48.164;11.572;2023-02-15T17:18:16;17.38;;;6.63;;
16600;SDS011;34891;48.164;11.572;2023-02-15T17:23:21;24.98;;;9.43;;
16600;SDS011;34891;48.164;11.572;2023-02-15T17:28:27;25.63;;;10.07;;
16600;SDS011;34891;48.164;11.572;2023-02-15T17:33:35;21.75;;;7.68;;
16600;SDS011;34891;48.164;11.572;2023-02-15T17:38:38;23.77;;;9.15;;
16600;SDS011;34891;48.164;11.572;2023-02-15T17:43:43;26.30;;;9.13;;
16600;SDS011;34891;48.164;11.572;2023-02-15T17:48:46;33.60;;;9.60;;
16600;SDS011;34891;48.164;11.572;2023-02-15T17:53:49;16.52;;;6.13;;
16600;SDS011;34891;48.164;11.572;2023-02-15T17:59:07;17.35;;;6.72;;
16600;SDS011;34891;48.164;11.572;2023-02-15T18:04:13;23.35;;;9.38;;
16600;SDS011;34891;48.164;11.572;2023-02-15T18:09:34;26.70;;;9.57;;
16600;SDS011;34891;48.164;11.572;2023-02-15T18:14:55;22.98;;;8.77;;
16600;SDS011;34891;48.164;11.572;2023-02-15T18:25:01;28.33;;;9.95;;
16600;SDS011;34891;48.164;11.572;2023-02-15T18:30:06;35.47;;;12.18;;
16600;SDS011;34891;48.164;11.572;2023-02-15T18:35:12;38.88;;;12.68;;
16600;SDS011;34891;48.164;11.572;2023-02-15T18:40:17;22.98;;;9.13;;
16600;SDS011;34891;48.164;11.572;2023-02-15T18:45:22;26.40;;;10.00;;
16600;SDS011;34891;48.164;11.572;2023-02-15T18:50:26;18.33;;;6.30;;
16600;SDS011;34891;48.164;11.572;2023-02-15T18:55:29;14.10;;;6.05;;
16600;SDS011;34891;48.164;11.572;2023-02-15T19:05:39;20.43;;;7.70;;
16600;SDS011;34891;48.164;11.572;2023-02-15T19:10:42;24.15;;;8.35;;
16600;SDS011;34891;48.164;11.572;2023-02-15T19:15:44;23.23;;;6.60;;
16600;SDS011;34891;48.164;11.572;2023-02-15T19:20:48;27.80;;;9.77;;
16600;SDS011;34891;48.164;11.572;2023-02-15T19:25:51;24.90;;;8.98;;
16600;SDS011;34891;48.164;11.572;2023-02-15T19:30:55;19.02;;;7.47;;
16600;SDS011;34891;48.164;11.572;2023-02-15T19:35:59;25.77;;;9.65;;
16600;SDS011;34891;48.164;11.572;2023-02-15T19:41:04;28.77;;;10.60;;
16600;SDS011;34891;48.164;11.572;2023-02-15T19:46:08;28.30;;;10.50;;
16600;SDS011;34891;48.164;11.572;2023-02-15T19:56:16;28.67;;;10.87;;
16600;SDS011;34891;48.164;11.572;2023-02-15T20:01:20;28.43;;;10.63;;
16600;SDS011;34891;48.164;11.572;2023-02-15T20:06:23;25.40;;;10.10;;
16600;SDS011;34891;48.164;11.572;2023-02-15T20:11:27;23.67;;;8.77;;
16600;SDS011;34891;48.164;11.572;2023-02-15T20:21:33;23.25;;;8.75;;
16600;SDS011;34891;48.164;11.572;2023-02-15T20:26:37;24.20;;;7.95;;
16600;SDS011;34891;48.164;11.572;2023-02-15T20:31:40;25.65;;;8.50;;
16600;SDS011;34891;48.164;11.572;2023-02-15T20:36:43;20.43;;;7.80;;
16600;SDS011;34891;48.164;11.572;2023-02-15T20:41:47;24.10;;;7.53;;
16600;SDS011;34891;48.164;11.572;2023-02-15T20:46:51;27.80;;;9.05;;
16600;SDS011;34891;48.164;11.572;2023-02-15T20:56:58;23.67;;;9.23;;
16600;SDS011;34891;48.164;11.572;2023-02-15T21:07:03;28.13;;;9.45;;
16600;SDS011;34891;48.164;11.572;2023-02-15T21:12:09;27.58;;;9.55;;
16600;SDS011;34891;48.164;11.572;2023-02-15T21:17:15;28.63;;;8.73;;
16600;SDS011;34891;48.164;11.572;2023-02-15T21:22:17;28.05;;;10.05;;
16600;SDS011;34891;48.164;11.572;2023-02-15T21:27:23;23.35;;;9.40;;
16600;SDS011;34891;48.164;11.572;2023-02-15T21:32:25;36.63;;;11.43;;
16600;SDS011;34891;48.164;11.572;2023-02-15T21:37:29;33.93;;;11.17;;
16600;SDS011;34891;48.164;11.572;2023-02-15T21:42:34;35.83;;;13.57;;
16600;SDS011;34891;48.164;11.572;2023-02-15T21:47:55;43.53;;;12.73;;
16600;SDS011;34891;48.164;11.572;2023-02-15T21:52:57;36.63;;;11.63;;
16600;SDS011;34891;48.164;11.572;2023-02-15T21:58:01;34.23;;;12.87;;
16600;SDS011;34891;48.164;11.572;2023-02-15T22:03:04;38.70;;;10.02;;
16600;SDS011;34891;48.164;11.572;2023-02-15T22:08:08;39.15;;;12.68;;
16600;SDS011;34891;48.164;11.572;2023-02-15T22:13:14;39.60;;;13.05;;
16600;SDS011;34891;48.164;11.572;2023-02-15T22:18:18;38.92;;;12.63;;
16600;SDS011;34891;48.164;11.572;2023-02-15T22:23:22;34.63;;;12.90;;
16600;SDS011;34891;48.164;11.572;2023-02-15T22:28:28;28.92;;;9.60;;
16600;SDS011;34891;48.164;11.572;2023-02-15T22:33:32;36.33;;;12.37;;
16600;SDS011;34891;48.164;11.572;2023-02-15T22:38:35;30.07;;;10.37;;
16600;SDS011;34891;48.164;11.572;2023-02-15T22:43:40;28.00;;;9.37;;
16600;SDS011;34891;48.164;11.572;2023-02-15T22:48:44;28.83;;;9.53;;
16600;SDS011;34891;48.164;11.572;2023-02-15T22:53:48;20.60;;;6.27;;
16600;SDS011;34891;48.164;11.572;2023-02-15T22:58:55;27.40;;;9.50;;
16600;SDS011;34891;48.164;11.572;2023-02-15T23:04:00;14.00;;;5.33;;
16600;SDS011;34891;48.164;11.572;2023-02-15T23:14:12;24.57;;;8.57;;
16600;SDS011;34891;48.164;11.572;2023-02-15T23:24:24;21.70;;;8.37;;
16600;SDS011;34891;48.164;11.572;2023-02-15T23:29:29;26.20;;;9.07;;
16600;SDS011;34891;48.164;11.572;2023-02-15T23:34:32;23.63;;;8.45;;
16600;SDS011;34891;48.164;11.572;2023-02-15T23:39:34;30.47;;;10.53;;
16600;SDS011;34891;48.164;11.572;2023-02-15T23:44:56;33.70;;;11.90;;
16600;SDS011;34891;48.164;11.572;2023-02-15T23:49:59;25.13;;;9.45;;
16600;SDS011;34891;48.164;11.572;2023-02-15T23:55:01;27.53;;;10.17;;
